sensor_id;sensor_type;location;lat;lon;timestamp;temperature;humidity
71668;DHT22;59504;54.806;9.640;2022-08-11T00:01:30;15.10;60.70
71668;DHT22;59504;54.806;9.640;2022-08-11T00:03:32;15.10;60.90
71668;DHT22;59504;54.806;9.640;2022-08-11T00:05:52;15.10;60.80
71668;DHT22;59504;54.806;9.640;2022-08-11T00:07:55;15.10;61.10
71668;DHT22;59504;54.806;9.640;2022-08-11T00:09:58;15.00;60.90
71668;DHT22;59504;54.806;9.640;2022-08-11T00:11:59;15.00;61.00
71668;DHT22;59504;54.806;9.640;2022-08-11T00:14:02;15.00;61.00
71668;DHT22;59504;54.806;9.640;2022-08-11T00:16:19;14.90;61.10
71668;DHT22;59504;54.806;9.640;2022-08-11T00:18:21;14.90;61.40
71668;DHT22;59504;54.806;9.640;2022-08-11T00:20:30;14.90;61.40
71668;DHT22;59504;54.806;9.640;2022-08-11T00:22:33;14.90;61.60
71668;DHT22;59504;54.806;9.640;2022-08-11T00:24:37;14.80;61.60
71668;DHT22;59504;54.806;9.640;2022-08-11T00:26:38;14.80;61.70
71668;DHT22;59504;54.806;9.640;2022-08-11T00:28:39;14.80;61.80
71668;DHT22;59504;54.806;9.640;2022-08-11T00:30:41;14.70;61.80
71668;DHT22;59504;54.806;9.640;2022-08-11T00:32:51;14.70;62.00
71668;DHT22;59504;54.806;9.640;2022-08-11T00:34:54;14.70;62.00
71668;DHT22;59504;54.806;9.640;2022-08-11T00:37:07;14.60;61.90
71668;DHT22;59504;54.806;9.640;2022-08-11T00:39:09;14.60;62.10
71668;DHT22;59504;54.806;9.640;2022-08-11T00:41:28;14.60;62.00
71668;DHT22;59504;54.806;9.640;2022-08-11T00:48:39;14.50;62.30
71668;DHT22;59504;54.806;9.640;2022-08-11T00:53:44;14.40;62.50
71668;DHT22;59504;54.806;9.640;2022-08-11T01:03:19;14.30;62.60
71668;DHT22;59504;54.806;9.640;2022-08-11T01:05:48;14.30;62.50
71668;DHT22;59504;54.806;9.640;2022-08-11T01:15:57;14.10;63.00
71668;DHT22;59504;54.806;9.640;2022-08-11T01:25:47;14.00;63.30
71668;DHT22;59504;54.806;9.640;2022-08-11T01:33:38;14.00;64.10
71668;DHT22;59504;54.806;9.640;2022-08-11T01:48:15;13.80;63.90
71668;DHT22;59504;54.806;9.640;2022-08-11T01:50:39;13.80;64.10
71668;DHT22;59504;54.806;9.640;2022-08-11T01:53:22;13.80;64.20
71668;DHT22;59504;54.806;9.640;2022-08-11T01:55:28;13.70;64.30
71668;DHT22;59504;54.806;9.640;2022-08-11T01:57:41;13.70;63.90
71668;DHT22;59504;54.806;9.640;2022-08-11T01:59:47;13.70;63.90
71668;DHT22;59504;54.806;9.640;2022-08-11T02:07:48;13.60;64.40
71668;DHT22;59504;54.806;9.640;2022-08-11T02:10:17;13.60;64.30
71668;DHT22;59504;54.806;9.640;2022-08-11T02:12:56;13.50;64.40
71668;DHT22;59504;54.806;9.640;2022-08-11T02:17:59;13.50;64.20
71668;DHT22;59504;54.806;9.640;2022-08-11T02:23:01;13.40;64.40
71668;DHT22;59504;54.806;9.640;2022-08-11T02:25:37;13.50;64.60
71668;DHT22;59504;54.806;9.640;2022-08-11T02:27:44;13.40;64.40
71668;DHT22;59504;54.806;9.640;2022-08-11T02:30:01;13.40;64.60
71668;DHT22;59504;54.806;9.640;2022-08-11T02:32:20;13.40;64.70
71668;DHT22;59504;54.806;9.640;2022-08-11T02:35:09;13.40;64.80
71668;DHT22;59504;54.806;9.640;2022-08-11T02:37:19;13.40;65.10
71668;DHT22;59504;54.806;9.640;2022-08-11T02:39:28;13.30;64.90
71668;DHT22;59504;54.806;9.640;2022-08-11T02:46:24;13.30;65.10
71668;DHT22;59504;54.806;9.640;2022-08-11T02:53:36;13.30;65.50
71668;DHT22;59504;54.806;9.640;2022-08-11T02:58:13;13.20;65.10
71668;DHT22;59504;54.806;9.640;2022-08-11T03:00:17;13.20;65.60
71668;DHT22;59504;54.806;9.640;2022-08-11T03:02:42;13.20;65.30
71668;DHT22;59504;54.806;9.640;2022-08-11T03:10:24;13.20;65.60
71668;DHT22;59504;54.806;9.640;2022-08-11T03:13:01;13.10;65.70
71668;DHT22;59504;54.806;9.640;2022-08-11T03:15:31;13.10;65.70
71668;DHT22;59504;54.806;9.640;2022-08-11T03:18:23;13.10;65.60
71668;DHT22;59504;54.806;9.640;2022-08-11T03:20:38;13.10;65.90
71668;DHT22;59504;54.806;9.640;2022-08-11T03:23:08;13.10;66.00
71668;DHT22;59504;54.806;9.640;2022-08-11T03:32:41;13.00;66.60
71668;DHT22;59504;54.806;9.640;2022-08-11T03:34:47;13.00;66.60
71668;DHT22;59504;54.806;9.640;2022-08-11T03:37:04;13.00;66.60
71668;DHT22;59504;54.806;9.640;2022-08-11T03:46:09;13.00;67.40
71668;DHT22;59504;54.806;9.640;2022-08-11T03:48:22;13.00;66.90
71668;DHT22;59504;54.806;9.640;2022-08-11T04:11:42;12.80;67.10
71668;DHT22;59504;54.806;9.640;2022-08-11T04:16:43;12.80;67.60
71668;DHT22;59504;54.806;9.640;2022-08-11T04:28:56;12.90;68.50
71668;DHT22;59504;54.806;9.640;2022-08-11T04:31:33;12.80;68.50
71668;DHT22;59504;54.806;9.640;2022-08-11T04:33:53;12.80;68.70
71668;DHT22;59504;54.806;9.640;2022-08-11T04:38:57;12.80;69.10
71668;DHT22;59504;54.806;9.640;2022-08-11T04:48:18;12.90;70.30
71668;DHT22;59504;54.806;9.640;2022-08-11T04:56:19;13.00;70.50
71668;DHT22;59504;54.806;9.640;2022-08-11T05:06:42;13.30;71.50
71668;DHT22;59504;54.806;9.640;2022-08-11T05:13:38;13.50;72.90
71668;DHT22;59504;54.806;9.640;2022-08-11T05:16:34;13.60;73.10
71668;DHT22;59504;54.806;9.640;2022-08-11T05:19:00;13.70;73.80
71668;DHT22;59504;54.806;9.640;2022-08-11T05:21:21;13.80;73.30
71668;DHT22;59504;54.806;9.640;2022-08-11T05:23:48;13.90;73.80
71668;DHT22;59504;54.806;9.640;2022-08-11T05:30:47;14.30;75.90
71668;DHT22;59504;54.806;9.640;2022-08-11T05:33:17;14.40;76.10
71668;DHT22;59504;54.806;9.640;2022-08-11T05:37:43;14.70;76.60
71668;DHT22;59504;54.806;9.640;2022-08-11T05:40:10;14.80;76.70
71668;DHT22;59504;54.806;9.640;2022-08-11T05:42:31;15.00;77.00
71668;DHT22;59504;54.806;9.640;2022-08-11T05:44:55;15.10;77.00
71668;DHT22;59504;54.806;9.640;2022-08-11T05:47:23;15.30;77.20
71668;DHT22;59504;54.806;9.640;2022-08-11T05:49:49;15.40;78.80
71668;DHT22;59504;54.806;9.640;2022-08-11T05:52:14;15.60;77.30
71668;DHT22;59504;54.806;9.640;2022-08-11T05:54:34;15.70;77.70
71668;DHT22;59504;54.806;9.640;2022-08-11T05:57:00;15.90;77.90
71668;DHT22;59504;54.806;9.640;2022-08-11T06:02:18;16.20;79.60
71668;DHT22;59504;54.806;9.640;2022-08-11T06:04:23;16.40;79.20
71668;DHT22;59504;54.806;9.640;2022-08-11T06:06:26;16.50;79.70
71668;DHT22;59504;54.806;9.640;2022-08-11T06:08:32;16.70;79.60
71668;DHT22;59504;54.806;9.640;2022-08-11T06:10:38;16.80;79.80
71668;DHT22;59504;54.806;9.640;2022-08-11T06:12:41;17.00;79.90
71668;DHT22;59504;54.806;9.640;2022-08-11T06:14:44;17.10;79.90
71668;DHT22;59504;54.806;9.640;2022-08-11T06:16:49;17.30;79.70
71668;DHT22;59504;54.806;9.640;2022-08-11T06:18:52;17.40;79.70
71668;DHT22;59504;54.806;9.640;2022-08-11T06:20:55;17.50;79.70
71668;DHT22;59504;54.806;9.640;2022-08-11T06:23:05;17.70;79.70
71668;DHT22;59504;54.806;9.640;2022-08-11T06:25:07;17.80;79.70
71668;DHT22;59504;54.806;9.640;2022-08-11T06:27:09;17.90;79.30
71668;DHT22;59504;54.806;9.640;2022-08-11T06:29:10;18.00;79.00
71668;DHT22;59504;54.806;9.640;2022-08-11T06:31:19;18.20;78.90
71668;DHT22;59504;54.806;9.640;2022-08-11T06:33:34;18.20;79.10
71668;DHT22;59504;54.806;9.640;2022-08-11T06:35:56;18.40;78.80
71668;DHT22;59504;54.806;9.640;2022-08-11T06:38:14;18.40;78.40
71668;DHT22;59504;54.806;9.640;2022-08-11T06:47:20;19.00;76.60
71668;DHT22;59504;54.806;9.640;2022-08-11T06:49:32;19.00;75.90
71668;DHT22;59504;54.806;9.640;2022-08-11T06:51:52;19.10;75.00
71668;DHT22;59504;54.806;9.640;2022-08-11T06:53:56;19.30;74.70
71668;DHT22;59504;54.806;9.640;2022-08-11T06:55:58;19.40;74.00
71668;DHT22;59504;54.806;9.640;2022-08-11T06:58:20;19.40;73.50
71668;DHT22;59504;54.806;9.640;2022-08-11T07:00:40;19.60;72.80
71668;DHT22;59504;54.806;9.640;2022-08-11T07:02:52;19.70;72.00
71668;DHT22;59504;54.806;9.640;2022-08-11T07:05:02;19.80;71.50
71668;DHT22;59504;54.806;9.640;2022-08-11T07:15:05;20.20;69.90
71668;DHT22;59504;54.806;9.640;2022-08-11T07:17:29;20.30;66.60
71668;DHT22;59504;54.806;9.640;2022-08-11T07:19:31;20.40;67.70
71668;DHT22;59504;54.806;9.640;2022-08-11T07:21:56;20.50;67.10
71668;DHT22;59504;54.806;9.640;2022-08-11T07:24:20;20.60;66.80
71668;DHT22;59504;54.806;9.640;2022-08-11T07:26:47;20.70;66.60
71668;DHT22;59504;54.806;9.640;2022-08-11T07:29:11;20.80;66.50
71668;DHT22;59504;54.806;9.640;2022-08-11T07:31:30;20.90;66.50
71668;DHT22;59504;54.806;9.640;2022-08-11T07:33:52;21.00;66.60
71668;DHT22;59504;54.806;9.640;2022-08-11T07:35:57;21.10;65.90
71668;DHT22;59504;54.806;9.640;2022-08-11T07:38:07;21.10;65.50
71668;DHT22;59504;54.806;9.640;2022-08-11T07:40:11;21.20;65.30
71668;DHT22;59504;54.806;9.640;2022-08-11T07:42:15;21.30;65.30
71668;DHT22;59504;54.806;9.640;2022-08-11T07:44:20;21.30;64.90
71668;DHT22;59504;54.806;9.640;2022-08-11T07:46:22;21.40;65.00
71668;DHT22;59504;54.806;9.640;2022-08-11T07:48:42;21.50;65.10
71668;DHT22;59504;54.806;9.640;2022-08-11T07:51:02;21.50;65.10
71668;DHT22;59504;54.806;9.640;2022-08-11T07:53:22;21.50;64.30
71668;DHT22;59504;54.806;9.640;2022-08-11T07:55:23;21.60;63.60
71668;DHT22;59504;54.806;9.640;2022-08-11T07:57:31;21.60;63.50
71668;DHT22;59504;54.806;9.640;2022-08-11T07:59:52;21.70;63.60
71668;DHT22;59504;54.806;9.640;2022-08-11T08:02:12;21.80;62.90
71668;DHT22;59504;54.806;9.640;2022-08-11T08:04:32;21.90;62.50
71668;DHT22;59504;54.806;9.640;2022-08-11T08:06:52;21.90;61.80
71668;DHT22;59504;54.806;9.640;2022-08-11T08:09:13;21.90;61.00
71668;DHT22;59504;54.806;9.640;2022-08-11T08:11:33;22.00;59.80
71668;DHT22;59504;54.806;9.640;2022-08-11T08:13:53;22.00;59.60
71668;DHT22;59504;54.806;9.640;2022-08-11T08:16:13;22.10;59.20
71668;DHT22;59504;54.806;9.640;2022-08-11T08:18:33;22.10;58.90
71668;DHT22;59504;54.806;9.640;2022-08-11T08:20:40;22.20;58.80
71668;DHT22;59504;54.806;9.640;2022-08-11T08:22:42;22.20;57.50
71668;DHT22;59504;54.806;9.640;2022-08-11T08:24:44;22.30;57.50
71668;DHT22;59504;54.806;9.640;2022-08-11T08:26:47;22.30;57.90
71668;DHT22;59504;54.806;9.640;2022-08-11T08:29:01;22.30;57.80
71668;DHT22;59504;54.806;9.640;2022-08-11T08:31:21;22.30;57.20
71668;DHT22;59504;54.806;9.640;2022-08-11T08:33:25;22.40;57.30
71668;DHT22;59504;54.806;9.640;2022-08-11T08:35:27;22.40;55.90
71668;DHT22;59504;54.806;9.640;2022-08-11T08:37:29;22.40;56.30
71668;DHT22;59504;54.806;9.640;2022-08-11T08:39:31;22.40;56.80
71668;DHT22;59504;54.806;9.640;2022-08-11T08:41:38;22.50;56.10
71668;DHT22;59504;54.806;9.640;2022-08-11T08:43:39;22.50;56.10
71668;DHT22;59504;54.806;9.640;2022-08-11T08:45:42;22.50;55.50
71668;DHT22;59504;54.806;9.640;2022-08-11T08:47:59;22.50;54.50
71668;DHT22;59504;54.806;9.640;2022-08-11T08:50:13;22.50;53.20
71668;DHT22;59504;54.806;9.640;2022-08-11T08:52:22;22.60;53.60
71668;DHT22;59504;54.806;9.640;2022-08-11T08:54:43;22.60;52.50
71668;DHT22;59504;54.806;9.640;2022-08-11T08:56:45;22.60;52.70
71668;DHT22;59504;54.806;9.640;2022-08-11T08:58:48;22.70;54.00
71668;DHT22;59504;54.806;9.640;2022-08-11T09:00:51;22.70;54.10
71668;DHT22;59504;54.806;9.640;2022-08-11T09:02:53;22.70;53.80
71668;DHT22;59504;54.806;9.640;2022-08-11T09:04:54;22.80;54.00
71668;DHT22;59504;54.806;9.640;2022-08-11T09:06:58;22.80;53.90
71668;DHT22;59504;54.806;9.640;2022-08-11T09:08:59;22.90;53.30
71668;DHT22;59504;54.806;9.640;2022-08-11T09:11:02;22.90;52.90
71668;DHT22;59504;54.806;9.640;2022-08-11T09:13:22;22.90;52.80
71668;DHT22;59504;54.806;9.640;2022-08-11T09:15:23;23.00;52.40
71668;DHT22;59504;54.806;9.640;2022-08-11T09:17:29;23.00;52.50
71668;DHT22;59504;54.806;9.640;2022-08-11T09:19:30;23.00;52.60
71668;DHT22;59504;54.806;9.640;2022-08-11T09:21:31;23.10;52.60
71668;DHT22;59504;54.806;9.640;2022-08-11T09:23:32;23.20;52.30
71668;DHT22;59504;54.806;9.640;2022-08-11T09:25:58;23.20;51.50
71668;DHT22;59504;54.806;9.640;2022-08-11T09:28:21;23.20;50.70
71668;DHT22;59504;54.806;9.640;2022-08-11T09:30:22;23.20;50.30
71668;DHT22;59504;54.806;9.640;2022-08-11T09:32:26;23.30;50.60
71668;DHT22;59504;54.806;9.640;2022-08-11T09:34:29;23.30;50.60
71668;DHT22;59504;54.806;9.640;2022-08-11T09:36:31;23.30;50.40
71668;DHT22;59504;54.806;9.640;2022-08-11T09:38:51;23.40;50.70
71668;DHT22;59504;54.806;9.640;2022-08-11T09:41:12;23.40;50.50
71668;DHT22;59504;54.806;9.640;2022-08-11T09:43:17;23.40;50.40
71668;DHT22;59504;54.806;9.640;2022-08-11T09:45:59;23.40;50.70
71668;DHT22;59504;54.806;9.640;2022-08-11T09:48:01;23.40;51.40
71668;DHT22;59504;54.806;9.640;2022-08-11T09:50:05;23.40;51.30
71668;DHT22;59504;54.806;9.640;2022-08-11T09:52:09;23.50;51.50
71668;DHT22;59504;54.806;9.640;2022-08-11T09:54:13;23.50;51.40
71668;DHT22;59504;54.806;9.640;2022-08-11T09:56:21;23.50;51.30
71668;DHT22;59504;54.806;9.640;2022-08-11T09:58:43;23.50;50.90
71668;DHT22;59504;54.806;9.640;2022-08-11T10:00:47;23.60;51.50
71668;DHT22;59504;54.806;9.640;2022-08-11T10:02:50;23.60;50.80
71668;DHT22;59504;54.806;9.640;2022-08-11T10:04:55;23.60;50.70
71668;DHT22;59504;54.806;9.640;2022-08-11T10:07:19;23.70;50.20
71668;DHT22;59504;54.806;9.640;2022-08-11T10:09:22;23.70;50.40
71668;DHT22;59504;54.806;9.640;2022-08-11T10:11:23;23.70;49.80
71668;DHT22;59504;54.806;9.640;2022-08-11T10:13:32;23.80;49.30
71668;DHT22;59504;54.806;9.640;2022-08-11T10:15:56;23.80;49.10
71668;DHT22;59504;54.806;9.640;2022-08-11T10:18:12;23.80;48.30
71668;DHT22;59504;54.806;9.640;2022-08-11T10:20:36;23.90;48.90
71668;DHT22;59504;54.806;9.640;2022-08-11T10:22:39;23.90;48.40
71668;DHT22;59504;54.806;9.640;2022-08-11T10:24:59;23.90;49.10
71668;DHT22;59504;54.806;9.640;2022-08-11T10:27:19;23.80;49.10
71668;DHT22;59504;54.806;9.640;2022-08-11T10:29:23;23.90;49.30
71668;DHT22;59504;54.806;9.640;2022-08-11T10:31:44;23.90;49.10
71668;DHT22;59504;54.806;9.640;2022-08-11T10:34:06;23.80;49.10
71668;DHT22;59504;54.806;9.640;2022-08-11T10:36:07;23.90;49.50
71668;DHT22;59504;54.806;9.640;2022-08-11T10:38:09;23.90;49.80
71668;DHT22;59504;54.806;9.640;2022-08-11T10:40:17;23.90;49.70
71668;DHT22;59504;54.806;9.640;2022-08-11T10:42:22;23.90;49.10
71668;DHT22;59504;54.806;9.640;2022-08-11T10:44:50;23.90;49.00
71668;DHT22;59504;54.806;9.640;2022-08-11T10:46:51;23.90;49.10
71668;DHT22;59504;54.806;9.640;2022-08-11T10:49:14;23.90;49.20
71668;DHT22;59504;54.806;9.640;2022-08-11T10:51:15;23.90;49.20
71668;DHT22;59504;54.806;9.640;2022-08-11T10:53:17;23.90;48.80
71668;DHT22;59504;54.806;9.640;2022-08-11T10:55:37;23.90;48.90
71668;DHT22;59504;54.806;9.640;2022-08-11T10:57:57;23.90;48.60
71668;DHT22;59504;54.806;9.640;2022-08-11T11:00:20;23.90;48.90
71668;DHT22;59504;54.806;9.640;2022-08-11T11:02:21;23.90;48.40
71668;DHT22;59504;54.806;9.640;2022-08-11T11:05:03;23.90;48.60
71668;DHT22;59504;54.806;9.640;2022-08-11T11:07:13;24.00;48.90
71668;DHT22;59504;54.806;9.640;2022-08-11T11:09:24;24.00;48.30
71668;DHT22;59504;54.806;9.640;2022-08-11T11:11:38;24.00;47.60
71668;DHT22;59504;54.806;9.640;2022-08-11T11:14:01;24.10;48.00
71668;DHT22;59504;54.806;9.640;2022-08-11T11:16:21;24.10;48.30
71668;DHT22;59504;54.806;9.640;2022-08-11T11:18:41;24.10;47.80
71668;DHT22;59504;54.806;9.640;2022-08-11T11:20:44;24.10;47.50
71668;DHT22;59504;54.806;9.640;2022-08-11T11:22:46;24.20;47.70
71668;DHT22;59504;54.806;9.640;2022-08-11T11:27:35;24.20;46.80
71668;DHT22;59504;54.806;9.640;2022-08-11T11:35:12;24.20;47.00
71668;DHT22;59504;54.806;9.640;2022-08-11T11:37:16;24.20;46.90
71668;DHT22;59504;54.806;9.640;2022-08-11T11:39:22;24.20;46.90
71668;DHT22;59504;54.806;9.640;2022-08-11T11:41:25;24.30;46.90
71668;DHT22;59504;54.806;9.640;2022-08-11T11:43:26;24.30;47.10
71668;DHT22;59504;54.806;9.640;2022-08-11T11:45:27;24.30;47.10
71668;DHT22;59504;54.806;9.640;2022-08-11T11:47:29;24.30;46.90
71668;DHT22;59504;54.806;9.640;2022-08-11T11:49:31;24.30;46.80
71668;DHT22;59504;54.806;9.640;2022-08-11T11:51:32;24.30;46.50
71668;DHT22;59504;54.806;9.640;2022-08-11T11:53:34;24.40;46.60
71668;DHT22;59504;54.806;9.640;2022-08-11T11:55:35;24.40;46.70
71668;DHT22;59504;54.806;9.640;2022-08-11T11:57:36;24.40;46.80
71668;DHT22;59504;54.806;9.640;2022-08-11T11:59:56;24.50;46.60
71668;DHT22;59504;54.806;9.640;2022-08-11T12:02:16;24.50;46.60
71668;DHT22;59504;54.806;9.640;2022-08-11T12:04:19;24.50;46.70
71668;DHT22;59504;54.806;9.640;2022-08-11T12:06:22;24.60;46.60
71668;DHT22;59504;54.806;9.640;2022-08-11T12:08:25;24.60;46.00
71668;DHT22;59504;54.806;9.640;2022-08-11T12:10:27;24.60;45.70
71668;DHT22;59504;54.806;9.640;2022-08-11T12:12:30;24.60;44.80
71668;DHT22;59504;54.806;9.640;2022-08-11T12:14:50;24.60;45.30
71668;DHT22;59504;54.806;9.640;2022-08-11T12:16:51;24.60;44.90
71668;DHT22;59504;54.806;9.640;2022-08-11T12:18:57;24.60;44.50
71668;DHT22;59504;54.806;9.640;2022-08-11T12:21:02;24.60;44.70
71668;DHT22;59504;54.806;9.640;2022-08-11T12:23:03;24.50;44.60
71668;DHT22;59504;54.806;9.640;2022-08-11T12:25:23;24.50;44.60
71668;DHT22;59504;54.806;9.640;2022-08-11T12:27:42;24.60;44.20
71668;DHT22;59504;54.806;9.640;2022-08-11T12:29:54;24.50;44.20
71668;DHT22;59504;54.806;9.640;2022-08-11T12:31:56;24.60;44.50
71668;DHT22;59504;54.806;9.640;2022-08-11T12:34:06;24.50;44.30
71668;DHT22;59504;54.806;9.640;2022-08-11T12:36:08;24.60;44.30
71668;DHT22;59504;54.806;9.640;2022-08-11T12:38:15;24.50;43.90
71668;DHT22;59504;54.806;9.640;2022-08-11T12:40:24;24.60;44.10
71668;DHT22;59504;54.806;9.640;2022-08-11T12:42:44;24.60;43.80
71668;DHT22;59504;54.806;9.640;2022-08-11T12:45:11;24.50;44.40
71668;DHT22;59504;54.806;9.640;2022-08-11T12:47:29;24.60;43.70
71668;DHT22;59504;54.806;9.640;2022-08-11T12:49:51;24.60;43.40
71668;DHT22;59504;54.806;9.640;2022-08-11T12:52:18;24.60;43.20
71668;DHT22;59504;54.806;9.640;2022-08-11T12:57:13;24.60;42.60
71668;DHT22;59504;54.806;9.640;2022-08-11T12:59:34;24.60;43.10
71668;DHT22;59504;54.806;9.640;2022-08-11T13:01:54;24.60;42.30
71668;DHT22;59504;54.806;9.640;2022-08-11T13:04:14;24.60;42.50
71668;DHT22;59504;54.806;9.640;2022-08-11T13:06:34;24.70;42.20
71668;DHT22;59504;54.806;9.640;2022-08-11T13:08:38;24.60;42.20
71668;DHT22;59504;54.806;9.640;2022-08-11T13:10:40;24.60;42.10
71668;DHT22;59504;54.806;9.640;2022-08-11T13:13:00;24.70;41.90
71668;DHT22;59504;54.806;9.640;2022-08-11T13:15:01;24.80;42.00
71668;DHT22;59504;54.806;9.640;2022-08-11T13:17:02;24.80;41.50
71668;DHT22;59504;54.806;9.640;2022-08-11T13:19:22;24.80;41.20
71668;DHT22;59504;54.806;9.640;2022-08-11T13:21:25;24.90;41.20
71668;DHT22;59504;54.806;9.640;2022-08-11T13:23:29;24.90;40.50
71668;DHT22;59504;54.806;9.640;2022-08-11T13:25:31;24.90;40.50
71668;DHT22;59504;54.806;9.640;2022-08-11T13:27:34;25.00;40.50
71668;DHT22;59504;54.806;9.640;2022-08-11T13:29:35;24.90;39.30
71668;DHT22;59504;54.806;9.640;2022-08-11T13:31:37;25.00;38.50
71668;DHT22;59504;54.806;9.640;2022-08-11T13:33:48;25.00;38.50
71668;DHT22;59504;54.806;9.640;2022-08-11T13:35:53;25.10;36.90
71668;DHT22;59504;54.806;9.640;2022-08-11T13:37:54;25.10;38.50
71668;DHT22;59504;54.806;9.640;2022-08-11T13:39:56;25.10;38.60
71668;DHT22;59504;54.806;9.640;2022-08-11T13:42:00;25.10;38.00
71668;DHT22;59504;54.806;9.640;2022-08-11T13:44:02;25.10;38.00
71668;DHT22;59504;54.806;9.640;2022-08-11T13:46:04;25.20;37.30
71668;DHT22;59504;54.806;9.640;2022-08-11T13:48:20;25.20;37.70
71668;DHT22;59504;54.806;9.640;2022-08-11T13:50:24;25.20;37.00
71668;DHT22;59504;54.806;9.640;2022-08-11T13:52:45;25.20;36.80
71668;DHT22;59504;54.806;9.640;2022-08-11T13:54:48;25.20;37.00
71668;DHT22;59504;54.806;9.640;2022-08-11T13:56:55;25.20;36.80
71668;DHT22;59504;54.806;9.640;2022-08-11T13:58:57;25.20;36.80
71668;DHT22;59504;54.806;9.640;2022-08-11T14:00:59;25.30;36.10
71668;DHT22;59504;54.806;9.640;2022-08-11T14:03:00;25.30;36.20
71668;DHT22;59504;54.806;9.640;2022-08-11T14:05:05;25.30;35.90
71668;DHT22;59504;54.806;9.640;2022-08-11T14:07:09;25.30;36.20
71668;DHT22;59504;54.806;9.640;2022-08-11T14:09:11;25.30;35.00
71668;DHT22;59504;54.806;9.640;2022-08-11T14:11:15;25.30;35.30
71668;DHT22;59504;54.806;9.640;2022-08-11T14:13:39;25.30;33.10
71668;DHT22;59504;54.806;9.640;2022-08-11T14:15:43;25.30;34.60
71668;DHT22;59504;54.806;9.640;2022-08-11T14:18:05;25.20;33.60
71668;DHT22;59504;54.806;9.640;2022-08-11T14:20:09;25.20;34.70
71668;DHT22;59504;54.806;9.640;2022-08-11T14:22:12;25.20;34.40
71668;DHT22;59504;54.806;9.640;2022-08-11T14:24:15;25.20;35.80
71668;DHT22;59504;54.806;9.640;2022-08-11T14:26:18;25.10;35.00
71668;DHT22;59504;54.806;9.640;2022-08-11T14:28:26;25.20;36.10
71668;DHT22;59504;54.806;9.640;2022-08-11T14:30:27;25.20;36.90
71668;DHT22;59504;54.806;9.640;2022-08-11T14:32:46;25.10;36.40
71668;DHT22;59504;54.806;9.640;2022-08-11T14:34:49;25.10;36.90
71668;DHT22;59504;54.806;9.640;2022-08-11T14:36:58;25.10;36.20
71668;DHT22;59504;54.806;9.640;2022-08-11T14:39:10;25.10;35.30
71668;DHT22;59504;54.806;9.640;2022-08-11T14:41:12;25.10;36.00
71668;DHT22;59504;54.806;9.640;2022-08-11T14:43:32;25.10;36.90
71668;DHT22;59504;54.806;9.640;2022-08-11T14:45:55;25.10;36.70
71668;DHT22;59504;54.806;9.640;2022-08-11T14:48:15;25.10;36.50
71668;DHT22;59504;54.806;9.640;2022-08-11T14:50:22;25.10;37.10
71668;DHT22;59504;54.806;9.640;2022-08-11T14:52:23;25.10;36.50
71668;DHT22;59504;54.806;9.640;2022-08-11T14:54:26;25.10;38.30
71668;DHT22;59504;54.806;9.640;2022-08-11T14:56:46;25.10;37.90
71668;DHT22;59504;54.806;9.640;2022-08-11T14:58:47;25.00;36.30
71668;DHT22;59504;54.806;9.640;2022-08-11T15:00:52;25.00;35.70
71668;DHT22;59504;54.806;9.640;2022-08-11T15:02:54;25.00;34.90
71668;DHT22;59504;54.806;9.640;2022-08-11T15:05:11;25.00;36.10
71668;DHT22;59504;54.806;9.640;2022-08-11T15:07:12;25.00;37.10
71668;DHT22;59504;54.806;9.640;2022-08-11T15:09:13;25.00;36.50
71668;DHT22;59504;54.806;9.640;2022-08-11T15:11:16;25.00;35.00
71668;DHT22;59504;54.806;9.640;2022-08-11T15:13:36;25.00;35.60
71668;DHT22;59504;54.806;9.640;2022-08-11T15:15:39;25.00;37.20
71668;DHT22;59504;54.806;9.640;2022-08-11T15:18:01;25.00;36.50
71668;DHT22;59504;54.806;9.640;2022-08-11T15:20:09;25.00;37.40
71668;DHT22;59504;54.806;9.640;2022-08-11T15:22:50;25.00;38.70
71668;DHT22;59504;54.806;9.640;2022-08-11T15:25:09;25.10;37.50
71668;DHT22;59504;54.806;9.640;2022-08-11T15:27:13;25.10;36.60
71668;DHT22;59504;54.806;9.640;2022-08-11T15:29:37;25.10;36.70
71668;DHT22;59504;54.806;9.640;2022-08-11T15:31:57;25.10;36.90
71668;DHT22;59504;54.806;9.640;2022-08-11T15:34:20;25.10;35.50
71668;DHT22;59504;54.806;9.640;2022-08-11T15:36:41;25.10;36.30
71668;DHT22;59504;54.806;9.640;2022-08-11T15:39:18;25.10;36.30
71668;DHT22;59504;54.806;9.640;2022-08-11T15:41:21;25.10;36.80
71668;DHT22;59504;54.806;9.640;2022-08-11T15:43:55;25.00;36.90
71668;DHT22;59504;54.806;9.640;2022-08-11T15:46:31;25.10;36.00
71668;DHT22;59504;54.806;9.640;2022-08-11T15:50:39;25.20;37.00
71668;DHT22;59504;54.806;9.640;2022-08-11T15:53:08;25.20;36.60
71668;DHT22;59504;54.806;9.640;2022-08-11T15:55:10;25.20;36.60
71668;DHT22;59504;54.806;9.640;2022-08-11T15:57:12;25.20;36.70
71668;DHT22;59504;54.806;9.640;2022-08-11T15:59:36;25.20;36.50
71668;DHT22;59504;54.806;9.640;2022-08-11T16:01:57;25.20;36.00
71668;DHT22;59504;54.806;9.640;2022-08-11T16:04:21;25.10;36.30
71668;DHT22;59504;54.806;9.640;2022-08-11T16:06:26;25.10;34.70
71668;DHT22;59504;54.806;9.640;2022-08-11T16:08:28;25.10;35.70
71668;DHT22;59504;54.806;9.640;2022-08-11T16:10:30;25.10;35.70
71668;DHT22;59504;54.806;9.640;2022-08-11T16:12:39;25.10;35.80
71668;DHT22;59504;54.806;9.640;2022-08-11T16:14:44;25.10;35.90
71668;DHT22;59504;54.806;9.640;2022-08-11T16:17:06;25.10;36.20
71668;DHT22;59504;54.806;9.640;2022-08-11T16:19:08;25.10;35.30
71668;DHT22;59504;54.806;9.640;2022-08-11T16:21:16;25.10;35.90
71668;DHT22;59504;54.806;9.640;2022-08-11T16:23:18;25.00;34.80
71668;DHT22;59504;54.806;9.640;2022-08-11T16:25:24;25.00;34.70
71668;DHT22;59504;54.806;9.640;2022-08-11T16:27:26;25.00;35.00
71668;DHT22;59504;54.806;9.640;2022-08-11T16:29:28;25.00;35.50
71668;DHT22;59504;54.806;9.640;2022-08-11T16:31:31;25.00;35.60
71668;DHT22;59504;54.806;9.640;2022-08-11T16:33:32;25.00;35.70
71668;DHT22;59504;54.806;9.640;2022-08-11T16:35:36;25.00;35.80
71668;DHT22;59504;54.806;9.640;2022-08-11T16:37:56;25.00;36.20
71668;DHT22;59504;54.806;9.640;2022-08-11T16:40:16;25.00;36.60
71668;DHT22;59504;54.806;9.640;2022-08-11T16:42:18;25.00;36.90
71668;DHT22;59504;54.806;9.640;2022-08-11T16:44:38;25.00;37.10
71668;DHT22;59504;54.806;9.640;2022-08-11T16:46:59;24.90;37.40
71668;DHT22;59504;54.806;9.640;2022-08-11T16:49:08;24.90;37.80
71668;DHT22;59504;54.806;9.640;2022-08-11T16:51:11;24.90;38.30
71668;DHT22;59504;54.806;9.640;2022-08-11T16:53:12;24.90;38.40
71668;DHT22;59504;54.806;9.640;2022-08-11T16:55:14;24.90;38.50
71668;DHT22;59504;54.806;9.640;2022-08-11T16:57:19;24.80;38.60
71668;DHT22;59504;54.806;9.640;2022-08-11T16:59:40;24.80;39.00
71668;DHT22;59504;54.806;9.640;2022-08-11T17:01:56;24.80;39.20
71668;DHT22;59504;54.806;9.640;2022-08-11T17:04:06;24.80;39.60